createdAt,value
2022-07-28T00:01:09.322Z,43.83
2022-07-28T00:03:40.091Z,43.91
2022-07-28T00:06:10.938Z,43.91
2022-07-28T00:08:41.631Z,43.98
2022-07-28T00:11:12.330Z,44.19
2022-07-28T00:13:43.163Z,44.02
2022-07-28T00:16:13.894Z,44.48
2022-07-28T00:18:45.587Z,44.39
2022-07-28T00:21:16.280Z,44.56
2022-07-28T00:23:47.030Z,44.67
2022-07-28T00:26:17.714Z,44.66
2022-07-28T00:28:48.506Z,44.78
2022-07-28T00:31:19.224Z,44.75
2022-07-28T00:33:50.005Z,44.77
2022-07-28T00:36:24.584Z,44.79
2022-07-28T00:38:56.719Z,45.09
2022-07-28T00:41:27.435Z,45.17
2022-07-28T00:43:58.078Z,45.17
2022-07-28T00:46:28.997Z,45.24
2022-07-28T00:48:59.831Z,45.24
2022-07-28T00:51:30.580Z,45.38
2022-07-28T00:54:01.269Z,45.38
2022-07-28T00:56:31.924Z,45.48
2022-07-28T00:59:02.845Z,45.50
2022-07-28T01:01:33.659Z,45.48
2022-07-28T01:04:04.625Z,45.65
2022-07-28T01:06:40.125Z,45.49
2022-07-28T01:09:12.799Z,45.61
2022-07-28T01:11:47.157Z,45.73
2022-07-28T01:14:20.061Z,45.72
2022-07-28T01:16:51.785Z,45.79
2022-07-28T01:19:30.167Z,45.87
2022-07-28T01:22:00.861Z,45.89
2022-07-28T01:24:32.749Z,46.16
2022-07-28T01:27:04.754Z,46.02
2022-07-28T01:29:59.947Z,46.18
2022-07-28T01:32:32.117Z,46.09
2022-07-28T01:35:04.878Z,46.18
2022-07-28T01:37:36.713Z,46.27
2022-07-28T01:40:08.877Z,46.33
2022-07-28T01:42:41.047Z,46.34
2022-07-28T01:45:12.640Z,46.50
2022-07-28T01:47:43.841Z,46.39
2022-07-28T01:50:15.387Z,46.62
2022-07-28T01:52:46.175Z,46.67
2022-07-28T01:55:16.822Z,46.75
2022-07-28T01:57:47.508Z,46.78
2022-07-28T02:00:18.783Z,46.92
2022-07-28T02:02:49.884Z,46.91
2022-07-28T02:05:21.672Z,47.10
2022-07-28T02:07:53.004Z,47.03
2022-07-28T02:10:23.741Z,47.18
2022-07-28T02:12:54.426Z,47.24
2022-07-28T02:15:25.293Z,47.18
2022-07-28T02:17:55.919Z,47.20
2022-07-28T02:20:26.473Z,47.28
2022-07-28T02:22:57.187Z,47.39
2022-07-28T02:25:27.939Z,47.22
2022-07-28T02:28:00.235Z,47.36
2022-07-28T02:30:32.270Z,47.50
2022-07-28T02:33:03.935Z,47.52
2022-07-28T02:35:38.219Z,47.70
2022-07-28T02:38:11.769Z,47.61
2022-07-28T02:40:42.589Z,47.68
2022-07-28T02:43:14.962Z,47.63
2022-07-28T02:45:47.513Z,47.81
2022-07-28T02:48:19.228Z,47.87
2022-07-28T02:50:49.886Z,47.98
2022-07-28T02:53:20.619Z,47.98
2022-07-28T02:55:51.630Z,48.17
2022-07-28T02:58:23.140Z,48.08
2022-07-28T03:00:54.734Z,48.19
2022-07-28T03:03:25.419Z,48.24
2022-07-28T03:05:56.153Z,48.28
2022-07-28T03:08:26.965Z,48.28
2022-07-28T03:11:09.304Z,48.42
2022-07-28T03:13:40.069Z,48.38
2022-07-28T03:16:10.813Z,48.45
2022-07-28T03:18:41.481Z,48.39
2022-07-28T03:21:12.760Z,48.57
2022-07-28T03:23:44.237Z,48.71
2022-07-28T03:26:17.241Z,48.66
2022-07-28T03:28:48.072Z,48.71
2022-07-28T03:31:18.825Z,48.80
2022-07-28T03:33:49.652Z,48.92
2022-07-28T03:36:20.647Z,48.80
2022-07-28T03:38:54.127Z,48.90
2022-07-28T03:41:24.924Z,48.91
2022-07-28T03:43:55.826Z,48.98
2022-07-28T03:46:27.954Z,48.99
2022-07-28T03:48:58.748Z,49.01
2022-07-28T03:51:29.765Z,49.02
2022-07-28T03:54:00.490Z,49.15
2022-07-28T03:56:31.292Z,49.11
2022-07-28T03:59:01.989Z,49.13
2022-07-28T04:01:32.747Z,49.16
2022-07-28T04:04:03.441Z,49.16
2022-07-28T04:06:34.213Z,49.11
2022-07-28T04:09:04.997Z,49.16
2022-07-28T04:11:35.715Z,49.17
2022-07-28T04:14:06.345Z,49.10
2022-07-28T04:16:37.581Z,49.16
2022-07-28T04:19:08.461Z,49.14
2022-07-28T04:21:39.279Z,49.16
2022-07-28T04:24:12.209Z,49.24
2022-07-28T04:26:44.020Z,49.14
2022-07-28T04:29:15.042Z,49.04
2022-07-28T04:31:54.707Z,49.12
2022-07-28T04:34:25.640Z,49.17
2022-07-28T04:36:56.751Z,49.11
2022-07-28T04:39:27.360Z,49.15
2022-07-28T04:41:58.017Z,49.04
2022-07-28T04:44:28.701Z,48.94
2022-07-28T04:46:59.396Z,48.98
2022-07-28T04:49:30.111Z,48.92
2022-07-28T04:52:08.376Z,48.97
2022-07-28T04:54:39.227Z,49.21
2022-07-28T04:57:12.908Z,49.09
2022-07-28T04:59:45.934Z,49.06
2022-07-28T05:02:19.140Z,49.12
2022-07-28T05:04:49.849Z,49.01
2022-07-28T05:07:20.824Z,49.04
2022-07-28T05:09:51.504Z,49.09
2022-07-28T05:12:22.194Z,48.94
2022-07-28T05:14:52.797Z,49.10
2022-07-28T05:17:23.460Z,49.09
2022-07-28T05:19:54.182Z,48.94
2022-07-28T05:22:25.033Z,48.84
2022-07-28T05:24:55.724Z,48.87
2022-07-28T05:27:26.371Z,48.79
2022-07-28T05:29:57.008Z,48.89
2022-07-28T05:32:27.710Z,48.83
2022-07-28T05:34:59.589Z,48.76
2022-07-28T05:37:30.457Z,48.66
2022-07-28T05:40:01.149Z,48.62
2022-07-28T05:42:36.055Z,48.64
2022-07-28T05:45:15.585Z,48.52
2022-07-28T05:47:48.409Z,48.36
2022-07-28T05:50:19.455Z,48.52
2022-07-28T05:52:51.508Z,48.38
2022-07-28T05:55:22.420Z,48.26
2022-07-28T05:57:54.314Z,48.14
2022-07-28T06:00:25.132Z,48.01
2022-07-28T06:02:55.837Z,48.10
2022-07-28T06:05:27.218Z,48.25
2022-07-28T06:07:58.003Z,47.95
2022-07-28T06:10:49.068Z,48.16
2022-07-28T06:13:20.199Z,48.15
2022-07-28T06:15:52.767Z,48.14
2022-07-28T06:18:23.419Z,47.99
2022-07-28T06:20:54.179Z,48.05
2022-07-28T06:23:24.892Z,48.03
2022-07-28T06:25:55.597Z,48.11
2022-07-28T06:28:26.305Z,47.91
2022-07-28T06:30:57.050Z,48.22
2022-07-28T06:33:27.761Z,47.78
2022-07-28T06:35:58.504Z,47.65
2022-07-28T06:38:29.334Z,47.55
2022-07-28T06:41:00.435Z,47.48
2022-07-28T06:43:33.187Z,47.40
2022-07-28T06:46:06.197Z,47.44
2022-07-28T06:48:39.589Z,47.86
2022-07-28T06:51:10.397Z,47.37
2022-07-28T06:53:43.547Z,47.56
2022-07-28T06:56:21.619Z,47.48
2022-07-28T06:58:54.115Z,47.47
2022-07-28T07:01:24.761Z,47.31
2022-07-28T07:03:55.547Z,47.27
2022-07-28T07:06:26.293Z,47.15
2022-07-28T07:08:57.104Z,47.23
2022-07-28T07:11:27.778Z,47.00
2022-07-28T07:13:58.669Z,47.35
2022-07-28T07:16:29.447Z,47.24
2022-07-28T07:19:00.261Z,47.23
2022-07-28T07:21:37.816Z,47.33
2022-07-28T07:24:09.403Z,46.97
2022-07-28T07:26:40.166Z,47.03
2022-07-28T07:29:10.997Z,46.99
2022-07-28T07:31:41.791Z,47.02
2022-07-28T07:34:12.783Z,46.90
2022-07-28T07:36:43.900Z,47.16
2022-07-28T07:39:14.596Z,46.77
2022-07-28T07:41:45.317Z,46.56
2022-07-28T07:44:17.147Z,46.49
2022-07-28T07:46:48.239Z,46.54
2022-07-28T07:49:19.282Z,46.41
2022-07-28T07:51:50.170Z,46.23
2022-07-28T07:54:22.093Z,46.12
2022-07-28T07:56:52.784Z,46.08
2022-07-28T07:59:23.533Z,46.08
2022-07-28T08:01:55.487Z,45.78
2022-07-28T08:04:26.315Z,45.77
2022-07-28T08:06:59.512Z,45.80
2022-07-28T08:09:30.959Z,45.62
2022-07-28T08:12:01.753Z,45.53
2022-07-28T08:14:32.470Z,45.47
2022-07-28T08:17:03.230Z,45.55
2022-07-28T08:19:33.896Z,45.50
2022-07-28T08:22:04.620Z,45.45
2022-07-28T08:24:35.509Z,45.36
2022-07-28T08:27:06.590Z,45.18
2022-07-28T08:29:37.155Z,45.28
2022-07-28T08:32:08.388Z,45.40
2022-07-28T08:34:39.081Z,45.29
2022-07-28T08:37:09.733Z,45.31
2022-07-28T08:39:40.432Z,45.12
2022-07-28T08:42:13.752Z,45.09
2022-07-28T08:44:46.432Z,44.74
2022-07-28T08:47:17.115Z,44.61
2022-07-28T08:49:49.158Z,44.64
2022-07-28T08:52:20.452Z,44.74
2022-07-28T08:54:51.343Z,44.56
2022-07-28T08:57:22.572Z,44.72
2022-07-28T08:59:53.208Z,44.46
2022-07-28T09:02:26.346Z,44.57
2022-07-28T09:04:57.860Z,44.44
2022-07-28T09:07:29.285Z,44.40
2022-07-28T09:10:02.814Z,44.45
2022-07-28T09:12:33.889Z,44.31
2022-07-28T09:15:04.809Z,44.24
2022-07-28T09:17:35.850Z,44.34
2022-07-28T09:20:10.865Z,44.25
2022-07-28T09:25:41.407Z,44.49
2022-07-28T09:28:12.479Z,44.36
2022-07-28T09:30:53.469Z,44.07
2022-07-28T09:33:42.870Z,44.16
2022-07-28T09:36:16.886Z,44.02
2022-07-28T09:38:47.580Z,44.17
2022-07-28T09:41:22.042Z,44.21
2022-07-28T09:43:55.157Z,44.05
2022-07-28T09:46:29.465Z,44.16
2022-07-28T09:49:01.500Z,44.39
2022-07-28T09:51:33.599Z,44.01
2022-07-28T09:54:14.429Z,43.69
2022-07-28T09:56:46.079Z,43.53
2022-07-28T09:59:18.262Z,43.32
2022-07-28T10:01:56.559Z,43.17
2022-07-28T10:04:35.057Z,42.75
2022-07-28T10:07:11.561Z,42.72
2022-07-28T10:09:42.340Z,42.33
2022-07-28T10:12:20.119Z,41.92
2022-07-28T10:14:52.031Z,41.68
2022-07-28T10:17:31.348Z,41.34
2022-07-28T10:20:02.498Z,41.11
2022-07-28T10:22:37.253Z,41.04
2022-07-28T10:25:12.718Z,40.75
2022-07-28T10:27:44.138Z,40.89
2022-07-28T10:30:15.635Z,40.72
2022-07-28T10:32:47.161Z,40.22
2022-07-28T10:35:18.410Z,39.72
2022-07-28T10:37:53.677Z,39.57
2022-07-28T10:40:27.413Z,39.04
2022-07-28T10:42:58.115Z,39.29
2022-07-28T10:45:48.017Z,39.13
2022-07-28T10:48:23.631Z,38.93
2022-07-28T10:50:54.897Z,38.69
2022-07-28T10:53:28.221Z,38.64
2022-07-28T10:56:01.186Z,38.33
2022-07-28T10:58:34.774Z,38.13
2022-07-28T11:01:06.566Z,37.83
2022-07-28T11:03:40.490Z,37.66
2022-07-28T11:06:27.932Z,37.73
2022-07-28T11:08:59.012Z,37.41
2022-07-28T11:11:45.171Z,37.23
2022-07-28T11:14:34.056Z,36.80
2022-07-28T11:17:15.518Z,36.87
2022-07-28T11:22:49.310Z,36.20
2022-07-28T11:25:22.538Z,35.92
2022-07-28T11:28:11.987Z,35.79
2022-07-28T11:30:53.593Z,35.86
2022-07-28T11:33:27.613Z,35.69
2022-07-28T11:35:59.379Z,35.82
2022-07-28T11:38:30.104Z,35.66
2022-07-28T11:41:00.899Z,35.49
2022-07-28T11:43:37.608Z,35.26
2022-07-28T11:46:31.849Z,35.58
2022-07-28T11:49:25.084Z,35.48
2022-07-28T11:52:15.432Z,35.26
2022-07-28T11:54:51.858Z,35.22
2022-07-28T11:57:24.510Z,35.30
2022-07-28T12:00:02.413Z,35.25
2022-07-28T12:02:33.500Z,35.43
2022-07-28T12:05:09.909Z,35.11
2022-07-28T12:07:51.129Z,34.92
2022-07-28T12:10:52.270Z,35.09
2022-07-28T12:13:17.006Z,35.17
2022-07-28T12:15:52.623Z,35.46
2022-07-28T12:18:24.866Z,35.38
2022-07-28T12:20:56.185Z,35.22
2022-07-28T12:23:39.049Z,35.25
2022-07-28T12:26:40.785Z,35.51
2022-07-28T12:29:14.226Z,35.23
2022-07-28T12:31:54.378Z,35.18
2022-07-28T12:34:28.935Z,35.21
2022-07-28T12:37:02.495Z,34.93
2022-07-28T12:39:34.643Z,34.82
2022-07-28T12:42:06.693Z,34.92
2022-07-28T12:44:38.566Z,34.87
2022-07-28T12:47:09.780Z,34.72
2022-07-28T12:49:41.160Z,34.84
2022-07-28T12:52:21.589Z,34.53
2022-07-28T12:54:55.700Z,34.70
2022-07-28T12:57:49.417Z,34.41
2022-07-28T13:00:22.583Z,34.30
2022-07-28T13:02:56.058Z,34.18
2022-07-28T13:05:54.417Z,34.08
2022-07-28T13:08:27.658Z,33.67
2022-07-28T13:11:00.469Z,33.94
2022-07-28T13:13:31.589Z,33.79
2022-07-28T13:16:15.693Z,33.69
2022-07-28T13:18:47.038Z,33.32
2022-07-28T13:21:17.587Z,33.24
2022-07-28T13:23:48.324Z,33.15
2022-07-28T13:26:18.972Z,33.55
2022-07-28T13:28:49.637Z,33.73
2022-07-28T13:31:20.407Z,33.51
2022-07-28T13:33:51.157Z,33.33
2022-07-28T13:36:22.338Z,33.18
2022-07-28T13:38:52.985Z,33.17
2022-07-28T13:41:23.634Z,33.47
2022-07-28T13:43:57.288Z,33.09
2022-07-28T13:46:28.080Z,33.25
2022-07-28T13:49:00.468Z,33.25
2022-07-28T13:51:31.326Z,33.45
2022-07-28T13:54:05.686Z,33.18
2022-07-28T13:56:43.128Z,33.39
2022-07-28T13:59:14.088Z,33.28
2022-07-28T14:01:49.724Z,33.10
2022-07-28T14:04:21.641Z,33.08
2022-07-28T14:06:52.973Z,32.99
2022-07-28T14:09:23.631Z,32.98
2022-07-28T14:11:54.380Z,32.77
2022-07-28T14:14:25.777Z,32.81
2022-07-28T14:16:56.612Z,32.99
2022-07-28T14:19:39.566Z,33.03
2022-07-28T14:22:13.596Z,33.19
2022-07-28T14:24:44.909Z,32.96
2022-07-28T14:27:15.610Z,33.30
2022-07-28T14:29:47.203Z,33.36
2022-07-28T14:32:17.832Z,33.26
2022-07-28T14:34:48.600Z,33.13
2022-07-28T14:37:19.511Z,33.30
2022-07-28T14:39:50.204Z,33.41
2022-07-28T14:42:20.868Z,33.41
2022-07-28T14:44:51.523Z,33.50
2022-07-28T14:47:22.421Z,33.42
2022-07-28T14:49:58.324Z,33.32
2022-07-28T14:52:29.587Z,33.21
2022-07-28T14:55:00.271Z,33.07
2022-07-28T14:57:48.205Z,33.00
2022-07-28T15:00:22.102Z,32.96
2022-07-28T15:02:53.235Z,33.01
2022-07-28T15:05:24.205Z,33.20
2022-07-28T15:07:54.887Z,33.17
2022-07-28T15:10:25.553Z,33.36
2022-07-28T15:12:56.901Z,33.24
2022-07-28T15:15:27.722Z,33.37
2022-07-28T15:17:58.594Z,33.57
2022-07-28T15:20:29.387Z,33.32
2022-07-28T15:22:59.992Z,33.37
2022-07-28T15:25:30.842Z,33.54
2022-07-28T15:28:01.994Z,33.47
2022-07-28T15:30:32.695Z,33.60
2022-07-28T15:33:07.119Z,33.73
2022-07-28T15:35:58.422Z,33.97
2022-07-28T15:38:29.136Z,33.92
2022-07-28T15:41:00.408Z,34.12
2022-07-28T15:43:32.923Z,34.06
2022-07-28T15:46:06.245Z,33.97
2022-07-28T15:48:37.018Z,34.11
2022-07-28T15:51:08.053Z,34.24
2022-07-28T15:53:38.730Z,34.35
2022-07-28T15:56:09.464Z,34.34
2022-07-28T15:58:40.893Z,34.42
2022-07-28T16:01:11.543Z,34.37
2022-07-28T16:03:42.413Z,34.39
2022-07-28T16:06:13.189Z,34.47
2022-07-28T16:08:43.849Z,34.58
2022-07-28T16:11:14.832Z,34.62
2022-07-28T16:13:45.746Z,34.78
2022-07-28T16:16:16.796Z,34.88
2022-07-28T16:18:47.539Z,34.96
2022-07-28T16:21:19.020Z,35.07
2022-07-28T16:23:49.665Z,35.13
2022-07-28T16:26:20.428Z,35.22
2022-07-28T16:28:51.277Z,35.26
2022-07-28T16:31:22.044Z,35.41
2022-07-28T16:33:52.754Z,35.50
2022-07-28T16:36:23.477Z,35.54
2022-07-28T16:38:54.113Z,35.57
2022-07-28T16:41:25.364Z,35.69
2022-07-28T16:44:16.441Z,35.60
2022-07-28T16:46:47.527Z,35.81
2022-07-28T16:49:18.352Z,35.68
2022-07-28T16:51:49.142Z,35.72
2022-07-28T16:54:20.538Z,35.63
2022-07-28T16:56:51.595Z,35.75
2022-07-28T16:59:22.671Z,36.12
2022-07-28T17:01:53.552Z,36.03
2022-07-28T17:04:24.407Z,35.99
2022-07-28T17:06:55.522Z,36.28
2022-07-28T17:09:26.271Z,36.33
2022-07-28T17:11:57.003Z,36.31
2022-07-28T17:14:27.815Z,36.43
2022-07-28T17:16:58.659Z,36.82
2022-07-28T17:19:32.805Z,37.46
2022-07-28T17:22:07.088Z,37.44
2022-07-28T17:24:37.787Z,37.83
2022-07-28T17:29:59.470Z,37.83
2022-07-28T17:32:30.277Z,37.92
2022-07-28T17:35:01.181Z,38.15
2022-07-28T17:37:32.393Z,38.13
2022-07-28T17:40:04.605Z,38.70
2022-07-28T17:42:35.707Z,38.47
2022-07-28T17:45:06.895Z,38.98
2022-07-28T17:47:39.967Z,38.96
2022-07-28T17:50:13.222Z,39.18
2022-07-28T17:52:44.517Z,39.26
2022-07-28T17:55:41.243Z,39.32
2022-07-28T17:58:28.192Z,39.32
2022-07-28T18:01:10.598Z,39.50
2022-07-28T18:03:56.817Z,39.44
2022-07-28T18:06:32.542Z,39.52
2022-07-28T18:09:06.458Z,39.82
2022-07-28T18:11:57.585Z,39.96
2022-07-28T18:14:29.989Z,39.85
2022-07-28T18:17:01.113Z,39.96
2022-07-28T18:19:32.085Z,40.19
2022-07-28T18:22:02.837Z,40.17
2022-07-28T18:24:33.623Z,40.29
2022-07-28T18:27:05.450Z,40.43
2022-07-28T18:29:38.488Z,40.55
2022-07-28T18:32:12.321Z,40.64
2022-07-28T18:34:45.550Z,40.66
2022-07-28T18:37:16.460Z,40.93
2022-07-28T18:39:47.323Z,41.10
2022-07-28T18:42:18.222Z,41.25
2022-07-28T18:44:49.239Z,41.36
2022-07-28T18:47:20.959Z,41.61
2022-07-28T18:49:52.724Z,41.85
2022-07-28T18:52:24.438Z,41.92
2022-07-28T18:54:55.862Z,42.10
2022-07-28T18:57:26.759Z,42.14
2022-07-28T18:59:57.402Z,42.16
2022-07-28T19:02:28.178Z,42.17
2022-07-28T19:04:59.260Z,42.43
2022-07-28T19:07:29.969Z,42.45
2022-07-28T19:10:01.109Z,42.52
2022-07-28T19:12:31.794Z,42.53
2022-07-28T19:15:02.437Z,42.79
2022-07-28T19:17:34.119Z,42.78
2022-07-28T19:20:08.078Z,42.86
2022-07-28T19:22:38.760Z,42.88
2022-07-28T19:25:10.312Z,43.05
2022-07-28T19:27:40.980Z,43.09
2022-07-28T19:30:12.415Z,43.14
2022-07-28T19:32:43.108Z,43.26
2022-07-28T19:35:14.004Z,43.39
2022-07-28T19:37:44.932Z,43.47
2022-07-28T19:40:15.764Z,43.76
2022-07-28T19:42:48.567Z,43.92
2022-07-28T19:45:20.242Z,44.17
2022-07-28T19:47:50.984Z,44.26
2022-07-28T19:50:21.885Z,44.44
2022-07-28T19:52:52.613Z,44.64
2022-07-28T19:55:24.220Z,44.61
2022-07-28T19:57:55.958Z,44.89
2022-07-28T20:00:26.771Z,45.02
2022-07-28T20:02:57.498Z,45.17
2022-07-28T20:05:28.597Z,45.42
2022-07-28T20:07:59.323Z,45.45
2022-07-28T20:10:30.108Z,45.78
2022-07-28T20:13:00.814Z,45.65
2022-07-28T20:15:31.661Z,46.00
2022-07-28T20:18:02.838Z,46.06
2022-07-28T20:20:33.573Z,46.16
2022-07-28T20:23:04.394Z,46.14
2022-07-28T20:25:35.127Z,46.22
2022-07-28T20:28:06.233Z,46.58
2022-07-28T20:30:36.882Z,46.69
2022-07-28T20:33:08.406Z,46.54
2022-07-28T20:35:39.311Z,46.83
2022-07-28T20:38:10.007Z,46.88
2022-07-28T20:40:40.625Z,47.00
2022-07-28T20:43:11.536Z,47.08
2022-07-28T20:45:42.381Z,47.12
2022-07-28T20:48:14.448Z,47.28
2022-07-28T20:50:45.506Z,47.36
2022-07-28T20:53:16.274Z,47.26
2022-07-28T20:55:46.994Z,47.29
2022-07-28T20:58:17.685Z,47.67
2022-07-28T21:00:49.316Z,47.77
2022-07-28T21:03:21.574Z,47.77
2022-07-28T21:05:52.335Z,47.73
2022-07-28T21:08:23.033Z,47.55
2022-07-28T21:10:54.204Z,47.60
2022-07-28T21:13:24.942Z,47.92
2022-07-28T21:15:55.663Z,47.77
2022-07-28T21:18:26.407Z,47.54
2022-07-28T21:20:57.243Z,48.11
2022-07-28T21:23:28.025Z,48.04
2022-07-28T21:25:58.861Z,48.13
2022-07-28T21:28:47.212Z,48.10
2022-07-28T21:31:18.010Z,47.88
2022-07-28T21:33:48.903Z,48.01
2022-07-28T21:36:19.675Z,48.13
2022-07-28T21:38:50.398Z,48.03
2022-07-28T21:41:25.421Z,47.80
2022-07-28T21:44:00.806Z,48.07
2022-07-28T21:46:34.555Z,47.93
2022-07-28T21:49:05.870Z,48.21
2022-07-28T21:51:36.663Z,47.95
2022-07-28T21:54:07.406Z,47.97
2022-07-28T21:56:38.097Z,48.15
2022-07-28T21:59:08.755Z,48.10
2022-07-28T22:01:39.542Z,48.27
2022-07-28T22:04:10.218Z,48.24
2022-07-28T22:06:40.849Z,48.21
2022-07-28T22:09:16.791Z,48.03
2022-07-28T22:11:47.522Z,48.37
2022-07-28T22:14:18.661Z,48.32
2022-07-28T22:16:50.809Z,48.42
2022-07-28T22:19:21.610Z,48.34
2022-07-28T22:21:54.126Z,48.29
2022-07-28T22:24:25.149Z,48.34
2022-07-28T22:26:55.849Z,48.53
2022-07-28T22:29:26.486Z,48.37
2022-07-28T22:31:59.385Z,48.60
2022-07-28T22:34:30.734Z,48.52
2022-07-28T22:37:11.184Z,48.49
2022-07-28T22:39:43.717Z,48.37
2022-07-28T22:42:14.436Z,48.77
2022-07-28T22:44:45.184Z,48.61
2022-07-28T22:47:15.863Z,48.49
2022-07-28T22:49:46.512Z,48.82
2022-07-28T22:52:17.262Z,48.63
2022-07-28T22:54:47.921Z,48.49
2022-07-28T22:57:18.650Z,48.58
2022-07-28T22:59:51.166Z,48.71
2022-07-28T23:02:22.200Z,48.77
2022-07-28T23:04:52.842Z,49.04
2022-07-28T23:07:51.106Z,48.65
2022-07-28T23:10:14.223Z,49.02
2022-07-28T23:12:44.864Z,49.27
2022-07-28T23:15:15.539Z,49.20
2022-07-28T23:17:46.263Z,49.23
2022-07-28T23:20:16.970Z,49.47
2022-07-28T23:22:47.646Z,49.56
2022-07-28T23:25:18.411Z,49.56
2022-07-28T23:27:49.175Z,49.44
2022-07-28T23:30:19.977Z,49.47
2022-07-28T23:32:52.739Z,49.66
2022-07-28T23:35:23.421Z,49.43
2022-07-28T23:37:54.242Z,49.74
2022-07-28T23:40:25.037Z,49.69
2022-07-28T23:42:55.734Z,49.82
2022-07-28T23:45:26.532Z,49.52
2022-07-28T23:47:59.031Z,49.65
2022-07-28T23:50:29.883Z,49.70
2022-07-28T23:53:00.657Z,49.48
2022-07-28T23:55:31.297Z,49.63
2022-07-28T23:58:01.995Z,49.85
